sensor_id;sensor_type;location;lat;lon;timestamp;pressure;altitude;pressure_sealevel;temperature;humidity
57990;BME280;58373;51.824;5.564;2022-09-03T00:05:45;101042.75;;;17.20;48.47
57990;BME280;58373;51.824;5.564;2022-09-03T00:08:16;101039.66;;;17.08;48.96
57990;BME280;58373;51.824;5.564;2022-09-03T00:13:24;101035.56;;;16.97;49.16
57990;BME280;58373;51.824;5.564;2022-09-03T00:15:52;101035.56;;;16.97;49.33
57990;BME280;58373;51.824;5.564;2022-09-03T00:18:22;101034.25;;;16.93;49.06
57990;BME280;58373;51.824;5.564;2022-09-03T00:20:58;101034.88;;;16.87;49.46
57990;BME280;58373;51.824;5.564;2022-09-03T00:23:34;101036.81;;;16.85;50.04
57990;BME280;58373;51.824;5.564;2022-09-03T00:28:48;101032.56;;;16.76;50.18
57990;BME280;58373;51.824;5.564;2022-09-03T00:31:30;101030.94;;;16.75;49.86
57990;BME280;58373;51.824;5.564;2022-09-03T00:34:04;101027.94;;;16.70;50.37
57990;BME280;58373;51.824;5.564;2022-09-03T00:36:38;101031.25;;;16.72;49.99
57990;BME280;58373;51.824;5.564;2022-09-03T00:39:15;101033.13;;;16.62;50.11
57990;BME280;58373;51.824;5.564;2022-09-03T00:42:08;101036.78;;;16.69;49.75
57990;BME280;58373;51.824;5.564;2022-09-03T00:44:58;101028.88;;;16.61;49.67
57990;BME280;58373;51.824;5.564;2022-09-03T00:50:19;101020.69;;;16.56;49.56
57990;BME280;58373;51.824;5.564;2022-09-03T00:56:00;101030.78;;;16.42;49.98
57990;BME280;58373;51.824;5.564;2022-09-03T01:01:09;101027.75;;;16.21;50.88
57990;BME280;58373;51.824;5.564;2022-09-03T01:04:23;101022.88;;;16.34;50.17
57990;BME280;58373;51.824;5.564;2022-09-03T01:06:55;101032.34;;;16.27;50.42
57990;BME280;58373;51.824;5.564;2022-09-03T01:23:08;100996.72;;;15.92;50.80
57990;BME280;58373;51.824;5.564;2022-09-03T01:29:19;101035.59;;;16.13;50.57
57990;BME280;58373;51.824;5.564;2022-09-03T01:32:04;101035.38;;;16.06;50.70
57990;BME280;58373;51.824;5.564;2022-09-03T01:40:38;101023.69;;;15.92;51.34
57990;BME280;58373;51.824;5.564;2022-09-03T01:46:02;101031.88;;;15.98;51.24
57990;BME280;58373;51.824;5.564;2022-09-03T01:48:39;101034.47;;;15.89;51.56
57990;BME280;58373;51.824;5.564;2022-09-03T01:51:11;101026.97;;;15.95;51.78
57990;BME280;58373;51.824;5.564;2022-09-03T01:57:15;101034.66;;;15.96;51.23
57990;BME280;58373;51.824;5.564;2022-09-03T01:59:56;101026.75;;;15.88;51.33
57990;BME280;58373;51.824;5.564;2022-09-03T02:02:26;101023.31;;;15.87;51.43
57990;BME280;58373;51.824;5.564;2022-09-03T02:05:10;101020.41;;;15.90;51.54
57990;BME280;58373;51.824;5.564;2022-09-03T02:07:42;101027.91;;;15.85;52.13
57990;BME280;58373;51.824;5.564;2022-09-03T02:10:19;101034.38;;;15.73;52.27
57990;BME280;58373;51.824;5.564;2022-09-03T02:12:48;101040.94;;;15.77;51.88
57990;BME280;58373;51.824;5.564;2022-09-03T02:15:17;101030.78;;;15.74;52.27
57990;BME280;58373;51.824;5.564;2022-09-03T02:17:45;101027.78;;;15.69;52.22
57990;BME280;58373;51.824;5.564;2022-09-03T02:20:16;101021.09;;;15.66;52.41
57990;BME280;58373;51.824;5.564;2022-09-03T02:22:44;101013.25;;;15.66;52.19
57990;BME280;58373;51.824;5.564;2022-09-03T02:25:10;101017.66;;;15.66;52.33
57990;BME280;58373;51.824;5.564;2022-09-03T02:27:37;101020.28;;;15.66;52.42
57990;BME280;58373;51.824;5.564;2022-09-03T02:30:04;101028.59;;;15.70;52.47
57990;BME280;58373;51.824;5.564;2022-09-03T02:32:29;101024.81;;;15.64;52.79
57990;BME280;58373;51.824;5.564;2022-09-03T02:34:55;101015.47;;;15.61;52.93
57990;BME280;58373;51.824;5.564;2022-09-03T02:37:21;101026.91;;;15.60;52.99
57990;BME280;58373;51.824;5.564;2022-09-03T02:39:46;101013.59;;;15.54;52.98
57990;BME280;58373;51.824;5.564;2022-09-03T02:42:14;101024.81;;;15.46;53.61
57990;BME280;58373;51.824;5.564;2022-09-03T02:45:03;101025.56;;;15.56;53.03
57990;BME280;58373;51.824;5.564;2022-09-03T02:47:36;101017.78;;;15.47;53.59
57990;BME280;58373;51.824;5.564;2022-09-03T02:50:04;101024.97;;;15.45;54.38
57990;BME280;58373;51.824;5.564;2022-09-03T02:52:30;101016.16;;;15.46;54.07
57990;BME280;58373;51.824;5.564;2022-09-03T02:54:56;101017.19;;;15.53;54.23
57990;BME280;58373;51.824;5.564;2022-09-03T02:57:21;101011.47;;;15.49;54.00
57990;BME280;58373;51.824;5.564;2022-09-03T02:59:46;101013.59;;;15.54;53.75
57990;BME280;58373;51.824;5.564;2022-09-03T03:02:12;101016.38;;;15.52;53.43
57990;BME280;58373;51.824;5.564;2022-09-03T03:04:38;101008.97;;;15.48;53.86
57990;BME280;58373;51.824;5.564;2022-09-03T03:07:04;101005.19;;;15.42;53.91
57990;BME280;58373;51.824;5.564;2022-09-03T03:09:30;101007.66;;;15.44;54.34
57990;BME280;58373;51.824;5.564;2022-09-03T03:11:55;101004.69;;;15.38;54.44
57990;BME280;58373;51.824;5.564;2022-09-03T03:14:21;101013.19;;;15.40;54.23
57990;BME280;58373;51.824;5.564;2022-09-03T03:16:48;101012.56;;;15.47;54.11
57990;BME280;58373;51.824;5.564;2022-09-03T03:19:14;101015.94;;;15.39;54.17
57990;BME280;58373;51.824;5.564;2022-09-03T03:21:39;101011.63;;;15.30;54.49
57990;BME280;58373;51.824;5.564;2022-09-03T03:24:04;101009.69;;;15.32;54.66
57990;BME280;58373;51.824;5.564;2022-09-03T03:26:30;101005.28;;;15.32;54.54
57990;BME280;58373;51.824;5.564;2022-09-03T03:28:58;101014.09;;;15.31;54.79
57990;BME280;58373;51.824;5.564;2022-09-03T03:31:24;101003.72;;;15.22;55.03
57990;BME280;58373;51.824;5.564;2022-09-03T03:33:58;101009.69;;;15.32;55.39
57990;BME280;58373;51.824;5.564;2022-09-03T03:36:25;101007.44;;;15.19;55.44
57990;BME280;58373;51.824;5.564;2022-09-03T03:38:56;101003.88;;;15.20;55.52
57990;BME280;58373;51.824;5.564;2022-09-03T03:41:27;101013.38;;;15.21;55.48
57990;BME280;58373;51.824;5.564;2022-09-03T03:43:53;101007.09;;;15.14;55.57
57990;BME280;58373;51.824;5.564;2022-09-03T03:46:21;101010.59;;;15.23;54.69
57990;BME280;58373;51.824;5.564;2022-09-03T03:48:51;101016.81;;;15.04;55.85
57990;BME280;58373;51.824;5.564;2022-09-03T03:51:17;101011.03;;;15.00;56.37
57990;BME280;58373;51.824;5.564;2022-09-03T03:53:43;101005.38;;;15.05;56.37
57990;BME280;58373;51.824;5.564;2022-09-03T03:56:11;101007.78;;;14.98;56.48
57990;BME280;58373;51.824;5.564;2022-09-03T03:58:39;101006.63;;;15.01;55.78
57990;BME280;58373;51.824;5.564;2022-09-03T04:01:16;101007.00;;;14.88;56.63
57990;BME280;58373;51.824;5.564;2022-09-03T04:03:43;100999.94;;;14.80;56.92
57990;BME280;58373;51.824;5.564;2022-09-03T04:06:11;101005.88;;;14.91;56.74
57990;BME280;58373;51.824;5.564;2022-09-03T04:08:39;101013.97;;;14.97;56.28
57990;BME280;58373;51.824;5.564;2022-09-03T04:11:06;101008.88;;;14.96;56.38
57990;BME280;58373;51.824;5.564;2022-09-03T04:13:35;101017.69;;;14.95;56.47
57990;BME280;58373;51.824;5.564;2022-09-03T04:16:06;101012.59;;;14.75;57.23
57990;BME280;58373;51.824;5.564;2022-09-03T04:18:32;101009.03;;;14.76;57.10
57990;BME280;58373;51.824;5.564;2022-09-03T04:21:01;101009.31;;;14.73;57.06
57990;BME280;58373;51.824;5.564;2022-09-03T04:23:35;101000.22;;;14.77;56.88
57990;BME280;58373;51.824;5.564;2022-09-03T04:26:01;101000.16;;;14.69;57.05
57990;BME280;58373;51.824;5.564;2022-09-03T04:28:26;100998.56;;;14.76;56.87
57990;BME280;58373;51.824;5.564;2022-09-03T04:30:52;100994.78;;;14.71;57.23
57990;BME280;58373;51.824;5.564;2022-09-03T04:33:18;100991.94;;;14.64;57.21
57990;BME280;58373;51.824;5.564;2022-09-03T04:35:44;100994.81;;;14.61;57.42
57990;BME280;58373;51.824;5.564;2022-09-03T04:38:09;100997.31;;;14.63;57.32
57990;BME280;58373;51.824;5.564;2022-09-03T04:40:35;101003.03;;;14.66;57.07
57990;BME280;58373;51.824;5.564;2022-09-03T04:43:01;101000.16;;;14.69;57.42
57990;BME280;58373;51.824;5.564;2022-09-03T04:45:27;100988.34;;;14.65;57.47
57990;BME280;58373;51.824;5.564;2022-09-03T04:48:03;100985.28;;;14.52;57.93
57990;BME280;58373;51.824;5.564;2022-09-03T04:50:30;100987.59;;;14.55;57.71
57990;BME280;58373;51.824;5.564;2022-09-03T04:53:00;100984.16;;;14.45;57.95
57990;BME280;58373;51.824;5.564;2022-09-03T04:55:27;100983.13;;;14.38;58.72
57990;BME280;58373;51.824;5.564;2022-09-03T04:57:52;100982.84;;;14.41;58.49
57990;BME280;58373;51.824;5.564;2022-09-03T05:00:17;100996.28;;;14.46;59.29
57990;BME280;58373;51.824;5.564;2022-09-03T05:02:44;100998.75;;;14.47;58.49
57990;BME280;58373;51.824;5.564;2022-09-03T05:05:11;100998.78;;;14.38;58.91
57990;BME280;58373;51.824;5.564;2022-09-03T05:07:37;100996.88;;;14.40;58.92
57990;BME280;58373;51.824;5.564;2022-09-03T05:10:10;101007.00;;;14.43;58.83
57990;BME280;58373;51.824;5.564;2022-09-03T05:12:46;101000.81;;;14.44;58.45
57990;BME280;58373;51.824;5.564;2022-09-03T05:15:14;100999.75;;;14.37;58.55
57990;BME280;58373;51.824;5.564;2022-09-03T05:17:39;101002.44;;;14.45;58.45
57990;BME280;58373;51.824;5.564;2022-09-03T05:20:05;100998.53;;;14.31;59.04
57990;BME280;58373;51.824;5.564;2022-09-03T05:22:34;101008.13;;;14.40;58.63
57990;BME280;58373;51.824;5.564;2022-09-03T05:25:00;101003.47;;;14.34;59.08
57990;BME280;58373;51.824;5.564;2022-09-03T05:27:25;101000.72;;;14.35;58.94
57990;BME280;58373;51.824;5.564;2022-09-03T05:29:51;101007.91;;;14.24;59.28
57990;BME280;58373;51.824;5.564;2022-09-03T05:32:16;101001.88;;;14.23;59.28
57990;BME280;58373;51.824;5.564;2022-09-03T05:34:42;101001.47;;;14.28;58.88
57990;BME280;58373;51.824;5.564;2022-09-03T05:37:08;101000.34;;;14.30;58.62
57990;BME280;58373;51.824;5.564;2022-09-03T05:39:34;101000.03;;;14.33;58.79
57990;BME280;58373;51.824;5.564;2022-09-03T05:41:59;101018.59;;;14.30;58.78
57990;BME280;58373;51.824;5.564;2022-09-03T05:44:24;101002.09;;;14.40;58.49
57990;BME280;58373;51.824;5.564;2022-09-03T05:46:50;101007.00;;;14.43;58.66
57990;BME280;58373;51.824;5.564;2022-09-03T05:49:16;101001.31;;;14.29;59.19
57990;BME280;58373;51.824;5.564;2022-09-03T05:51:42;101016.06;;;14.39;58.87
57990;BME280;58373;51.824;5.564;2022-09-03T05:54:09;101009.31;;;14.46;58.40
57990;BME280;58373;51.824;5.564;2022-09-03T05:56:36;101009.22;;;14.38;59.01
57990;BME280;58373;51.824;5.564;2022-09-03T05:59:04;101007.00;;;14.43;59.17
57990;BME280;58373;51.824;5.564;2022-09-03T06:01:44;101015.50;;;14.45;59.03
57990;BME280;58373;51.824;5.564;2022-09-03T06:04:14;101008.94;;;14.41;59.46
57990;BME280;58373;51.824;5.564;2022-09-03T06:06:42;101011.94;;;14.46;59.63
57990;BME280;58373;51.824;5.564;2022-09-03T06:09:16;101010.03;;;14.48;59.39
57990;BME280;58373;51.824;5.564;2022-09-03T06:11:43;101008.78;;;14.52;59.30
57990;BME280;58373;51.824;5.564;2022-09-03T06:14:11;101012.44;;;14.59;59.05
57990;BME280;58373;51.824;5.564;2022-09-03T06:16:38;101002.53;;;14.63;59.06
57990;BME280;58373;51.824;5.564;2022-09-03T06:19:05;101004.78;;;14.75;58.57
57990;BME280;58373;51.824;5.564;2022-09-03T06:21:38;101010.66;;;14.77;58.85
57990;BME280;58373;51.824;5.564;2022-09-03T06:24:08;101014.47;;;14.83;58.93
57990;BME280;58373;51.824;5.564;2022-09-03T06:26:34;101005.16;;;14.80;59.12
57990;BME280;58373;51.824;5.564;2022-09-03T06:28:59;101003.66;;;14.96;58.28
57990;BME280;58373;51.824;5.564;2022-09-03T06:31:25;101010.75;;;15.03;58.47
57990;BME280;58373;51.824;5.564;2022-09-03T06:33:51;101018.44;;;15.05;58.15
57990;BME280;58373;51.824;5.564;2022-09-03T06:36:19;101012.91;;;15.08;57.92
57990;BME280;58373;51.824;5.564;2022-09-03T06:38:46;101012.00;;;15.17;58.50
57990;BME280;58373;51.824;5.564;2022-09-03T06:41:14;101020.44;;;15.29;57.59
57990;BME280;58373;51.824;5.564;2022-09-03T06:43:42;101017.38;;;15.33;57.96
57990;BME280;58373;51.824;5.564;2022-09-03T06:46:13;101014.53;;;15.45;57.43
57990;BME280;58373;51.824;5.564;2022-09-03T06:48:38;101021.31;;;15.55;56.79
57990;BME280;58373;51.824;5.564;2022-09-03T06:51:12;101018.25;;;15.60;57.42
57990;BME280;58373;51.824;5.564;2022-09-03T06:53:40;101020.75;;;15.70;56.92
57990;BME280;58373;51.824;5.564;2022-09-03T06:56:08;101020.66;;;15.79;56.65
57990;BME280;58373;51.824;5.564;2022-09-03T06:58:39;101014.66;;;15.87;56.49
57990;BME280;58373;51.824;5.564;2022-09-03T07:01:16;101016.03;;;15.99;55.81
57990;BME280;58373;51.824;5.564;2022-09-03T07:03:44;101009.34;;;16.05;55.34
57990;BME280;58373;51.824;5.564;2022-09-03T07:06:12;101009.41;;;16.13;55.07
57990;BME280;58373;51.824;5.564;2022-09-03T07:08:38;101014.19;;;16.26;54.96
57990;BME280;58373;51.824;5.564;2022-09-03T07:11:11;101012.09;;;16.29;55.49
57990;BME280;58373;51.824;5.564;2022-09-03T07:13:39;101018.34;;;16.44;55.07
57990;BME280;58373;51.824;5.564;2022-09-03T07:16:08;101017.41;;;16.54;55.17
57990;BME280;58373;51.824;5.564;2022-09-03T07:18:34;101021.38;;;16.66;55.38
57990;BME280;58373;51.824;5.564;2022-09-03T07:21:02;101021.78;;;16.87;53.46
57990;BME280;58373;51.824;5.564;2022-09-03T07:23:28;101017.34;;;16.96;52.88
57990;BME280;58373;51.824;5.564;2022-09-03T07:25:55;101020.34;;;17.17;52.35
57990;BME280;58373;51.824;5.564;2022-09-03T07:28:21;101006.56;;;17.23;51.89
57990;BME280;58373;51.824;5.564;2022-09-03T07:30:47;101015.91;;;17.34;51.17
57990;BME280;58373;51.824;5.564;2022-09-03T07:33:12;101017.84;;;17.48;51.03
57990;BME280;58373;51.824;5.564;2022-09-03T07:35:38;101014.56;;;17.63;50.32
57990;BME280;58373;51.824;5.564;2022-09-03T07:38:03;101018.00;;;17.71;50.66
57990;BME280;58373;51.824;5.564;2022-09-03T07:40:28;101026.34;;;17.83;50.52
57990;BME280;58373;51.824;5.564;2022-09-03T07:42:57;101023.38;;;17.94;50.04
57990;BME280;58373;51.824;5.564;2022-09-03T07:45:29;101016.13;;;18.04;49.48
57990;BME280;58373;51.824;5.564;2022-09-03T07:47:55;101020.84;;;18.17;49.08
57990;BME280;58373;51.824;5.564;2022-09-03T07:50:21;101019.34;;;18.23;48.60
57990;BME280;58373;51.824;5.564;2022-09-03T07:52:46;101023.28;;;18.27;48.18
57990;BME280;58373;51.824;5.564;2022-09-03T07:55:12;101023.06;;;18.37;47.94
57990;BME280;58373;51.824;5.564;2022-09-03T07:57:38;101026.13;;;18.48;48.19
57990;BME280;58373;51.824;5.564;2022-09-03T08:00:04;101004.19;;;18.41;47.66
57990;BME280;58373;51.824;5.564;2022-09-03T08:02:32;101019.50;;;18.61;47.25
57990;BME280;58373;51.824;5.564;2022-09-03T08:04:57;101021.63;;;18.65;47.66
57990;BME280;58373;51.824;5.564;2022-09-03T08:07:23;101014.22;;;18.69;47.42
57990;BME280;58373;51.824;5.564;2022-09-03T08:09:48;101017.44;;;18.79;46.98
57990;BME280;58373;51.824;5.564;2022-09-03T08:12:13;101024.94;;;18.90;47.00
57990;BME280;58373;51.824;5.564;2022-09-03T08:14:39;101022.25;;;18.98;47.05
57990;BME280;58373;51.824;5.564;2022-09-03T08:17:04;101019.56;;;19.06;47.46
57990;BME280;58373;51.824;5.564;2022-09-03T08:19:31;101024.13;;;19.13;47.15
57990;BME280;58373;51.824;5.564;2022-09-03T08:21:56;101020.97;;;19.17;46.30
57990;BME280;58373;51.824;5.564;2022-09-03T08:24:22;101029.25;;;19.29;46.83
57990;BME280;58373;51.824;5.564;2022-09-03T08:26:49;101034.13;;;19.32;46.66
57990;BME280;58373;51.824;5.564;2022-09-03T08:29:15;101031.47;;;19.40;46.31
57990;BME280;58373;51.824;5.564;2022-09-03T08:31:40;101027.81;;;19.41;46.23
57990;BME280;58373;51.824;5.564;2022-09-03T08:34:06;101031.56;;;19.47;45.98
57990;BME280;58373;51.824;5.564;2022-09-03T08:36:33;101021.50;;;19.50;46.26
57990;BME280;58373;51.824;5.564;2022-09-03T08:39:01;101038.22;;;19.57;45.70
57990;BME280;58373;51.824;5.564;2022-09-03T08:49:57;101038.63;;;19.84;46.00
57990;BME280;58373;51.824;5.564;2022-09-03T08:53:02;101038.28;;;19.87;45.82
57990;BME280;58373;51.824;5.564;2022-09-03T08:55:36;101034.28;;;19.91;45.28
57990;BME280;58373;51.824;5.564;2022-09-03T09:00:49;101033.72;;;20.10;45.29
57990;BME280;58373;51.824;5.564;2022-09-03T09:06:27;101029.81;;;20.21;44.68
57990;BME280;58373;51.824;5.564;2022-09-03T09:14:19;101033.91;;;20.53;44.31
57990;BME280;58373;51.824;5.564;2022-09-03T09:22:03;101032.25;;;20.88;43.86
57990;BME280;58373;51.824;5.564;2022-09-03T09:24:39;101038.00;;;20.99;44.83
57990;BME280;58373;51.824;5.564;2022-09-03T09:27:06;101035.81;;;21.02;42.62
57990;BME280;58373;51.824;5.564;2022-09-03T09:29:35;101037.34;;;21.11;42.26
57990;BME280;58373;51.824;5.564;2022-09-03T09:32:01;101037.00;;;21.21;42.78
57990;BME280;58373;51.824;5.564;2022-09-03T09:34:33;101035.41;;;21.27;43.01
57990;BME280;58373;51.824;5.564;2022-09-03T09:37:03;101037.56;;;21.38;43.19
57990;BME280;58373;51.824;5.564;2022-09-03T09:39:30;101041.22;;;21.37;42.54
57990;BME280;58373;51.824;5.564;2022-09-03T09:42:00;101039.44;;;21.44;41.61
57990;BME280;58373;51.824;5.564;2022-09-03T09:44:30;101030.97;;;21.48;41.62
57990;BME280;58373;51.824;5.564;2022-09-03T09:47:12;101024.34;;;21.59;42.42
57990;BME280;58373;51.824;5.564;2022-09-03T09:52:18;101033.84;;;21.82;41.70
57990;BME280;58373;51.824;5.564;2022-09-03T09:54:46;101033.91;;;21.95;42.55
57990;BME280;58373;51.824;5.564;2022-09-03T09:57:17;101033.91;;;21.95;40.70
57990;BME280;58373;51.824;5.564;2022-09-03T09:59:45;101037.28;;;22.10;40.81
57990;BME280;58373;51.824;5.564;2022-09-03T10:02:13;101034.38;;;22.05;40.36
57990;BME280;58373;51.824;5.564;2022-09-03T10:04:40;101029.19;;;22.18;40.23
57990;BME280;58373;51.824;5.564;2022-09-03T10:07:28;101029.63;;;22.29;41.23
57990;BME280;58373;51.824;5.564;2022-09-03T10:12:47;101029.91;;;22.47;40.84
57990;BME280;58373;51.824;5.564;2022-09-03T10:17:51;101031.00;;;22.72;40.20
57990;BME280;58373;51.824;5.564;2022-09-03T10:23:34;101022.53;;;22.97;39.89
57990;BME280;58373;51.824;5.564;2022-09-03T10:26:10;101023.34;;;23.04;38.99
57990;BME280;58373;51.824;5.564;2022-09-03T10:28:40;101025.19;;;22.97;38.53
57990;BME280;58373;51.824;5.564;2022-09-03T10:33:46;101028.03;;;23.22;37.77
57990;BME280;58373;51.824;5.564;2022-09-03T10:41:53;101024.78;;;23.66;38.25
57990;BME280;58373;51.824;5.564;2022-09-03T10:47:24;101024.59;;;23.74;37.75
57990;BME280;58373;51.824;5.564;2022-09-03T10:50:09;101016.84;;;23.66;37.81
57990;BME280;58373;51.824;5.564;2022-09-03T10:53:13;101025.78;;;23.78;38.14
57990;BME280;58373;51.824;5.564;2022-09-03T11:01:23;101025.66;;;24.18;37.35
57990;BME280;58373;51.824;5.564;2022-09-03T11:06:26;101013.88;;;24.07;37.39
57990;BME280;58373;51.824;5.564;2022-09-03T11:09:19;101018.72;;;24.17;37.54
57990;BME280;58373;51.824;5.564;2022-09-03T11:11:50;101022.31;;;24.49;36.33
57990;BME280;58373;51.824;5.564;2022-09-03T11:14:29;101010.03;;;24.55;36.56
57990;BME280;58373;51.824;5.564;2022-09-03T11:17:04;101010.34;;;24.65;36.99
57990;BME280;58373;51.824;5.564;2022-09-03T11:19:36;101016.28;;;24.67;36.47
57990;BME280;58373;51.824;5.564;2022-09-03T11:22:09;101010.19;;;24.92;36.30
57990;BME280;58373;51.824;5.564;2022-09-03T11:24:36;101004.88;;;24.92;35.84
57990;BME280;58373;51.824;5.564;2022-09-03T11:27:08;101008.66;;;24.77;35.87
57990;BME280;58373;51.824;5.564;2022-09-03T11:30:04;101008.47;;;25.04;36.33
57990;BME280;58373;51.824;5.564;2022-09-03T11:32:49;101001.97;;;25.00;35.66
57990;BME280;58373;51.824;5.564;2022-09-03T11:40:31;101000.00;;;25.20;36.02
57990;BME280;58373;51.824;5.564;2022-09-03T11:43:06;100988.34;;;25.21;35.75
57990;BME280;58373;51.824;5.564;2022-09-03T11:47:57;100986.81;;;25.32;35.37
57990;BME280;58373;51.824;5.564;2022-09-03T11:50:24;100992.97;;;25.51;35.18
57990;BME280;58373;51.824;5.564;2022-09-03T11:53:05;100994.59;;;25.52;35.90
57990;BME280;58373;51.824;5.564;2022-09-03T11:56:00;100984.56;;;25.72;35.36
57990;BME280;58373;51.824;5.564;2022-09-03T11:58:38;100986.34;;;25.60;35.22
57990;BME280;58373;51.824;5.564;2022-09-03T12:01:09;100993.63;;;25.89;35.08
57990;BME280;58373;51.824;5.564;2022-09-03T12:03:47;100987.34;;;25.84;34.94
57990;BME280;58373;51.824;5.564;2022-09-03T12:17:08;100990.50;;;26.11;33.75
57990;BME280;58373;51.824;5.564;2022-09-03T12:22:01;100991.66;;;26.33;34.02
57990;BME280;58373;51.824;5.564;2022-09-03T12:24:28;100987.22;;;26.27;33.73
57990;BME280;58373;51.824;5.564;2022-09-03T12:26:57;100992.56;;;26.09;33.82
57990;BME280;58373;51.824;5.564;2022-09-03T12:29:25;100988.13;;;26.21;33.53
57990;BME280;58373;51.824;5.564;2022-09-03T12:31:51;100991.44;;;26.16;33.96
57990;BME280;58373;51.824;5.564;2022-09-03T12:34:19;101000.22;;;26.17;34.17
57990;BME280;58373;51.824;5.564;2022-09-03T12:36:50;100993.88;;;26.18;33.99
57990;BME280;58373;51.824;5.564;2022-09-03T12:39:27;100988.41;;;26.13;33.90
57990;BME280;58373;51.824;5.564;2022-09-03T12:42:05;101000.97;;;26.06;33.77
57990;BME280;58373;51.824;5.564;2022-09-03T12:47:12;100992.88;;;26.01;34.36
57990;BME280;58373;51.824;5.564;2022-09-03T12:49:43;100994.78;;;26.12;33.97
57990;BME280;58373;51.824;5.564;2022-09-03T12:55:28;100996.53;;;26.18;34.67
57990;BME280;58373;51.824;5.564;2022-09-03T12:58:21;100983.16;;;26.25;34.10
57990;BME280;58373;51.824;5.564;2022-09-03T13:03:45;100991.75;;;26.27;34.85
57990;BME280;58373;51.824;5.564;2022-09-03T13:06:14;100980.31;;;26.38;35.67
57990;BME280;58373;51.824;5.564;2022-09-03T13:08:49;100985.41;;;26.39;34.59
57990;BME280;58373;51.824;5.564;2022-09-03T13:11:18;100990.56;;;26.53;33.94
57990;BME280;58373;51.824;5.564;2022-09-03T13:14:03;100982.25;;;26.61;33.47
57990;BME280;58373;51.824;5.564;2022-09-03T13:30:09;100989.88;;;26.45;33.67
57990;BME280;58373;51.824;5.564;2022-09-03T13:32:57;100980.97;;;26.52;34.56
57990;BME280;58373;51.824;5.564;2022-09-03T13:38:08;100972.88;;;26.46;33.63
57990;BME280;58373;51.824;5.564;2022-09-03T13:40:53;100975.09;;;26.50;33.54
57990;BME280;58373;51.824;5.564;2022-09-03T13:46:01;100971.81;;;26.47;33.84
57990;BME280;58373;51.824;5.564;2022-09-03T13:48:39;100972.28;;;26.44;33.68
57990;BME280;58373;51.824;5.564;2022-09-03T13:51:30;100975.38;;;26.41;33.62
57990;BME280;58373;51.824;5.564;2022-09-03T13:54:30;100964.75;;;26.41;32.99
57990;BME280;58373;51.824;5.564;2022-09-03T13:56:54;100968.72;;;26.51;33.77
57990;BME280;58373;51.824;5.564;2022-09-03T14:05:12;100970.16;;;26.77;34.01
57990;BME280;58373;51.824;5.564;2022-09-03T14:10:53;100964.16;;;26.81;33.55
57990;BME280;58373;51.824;5.564;2022-09-03T14:21:38;100966.78;;;26.69;33.11
57990;BME280;58373;51.824;5.564;2022-09-03T14:24:19;100961.81;;;26.61;33.33
57990;BME280;58373;51.824;5.564;2022-09-03T14:29:16;100960.97;;;26.61;32.21
57990;BME280;58373;51.824;5.564;2022-09-03T14:44:54;100976.69;;;26.51;32.91
57990;BME280;58373;51.824;5.564;2022-09-03T14:47:37;100978.25;;;26.40;32.71
57990;BME280;58373;51.824;5.564;2022-09-03T15:01:27;100974.72;;;26.46;32.54
57990;BME280;58373;51.824;5.564;2022-09-03T15:12:36;100969.91;;;26.36;33.06
57990;BME280;58373;51.824;5.564;2022-09-03T15:15:21;100962.16;;;26.35;32.73
57990;BME280;58373;51.824;5.564;2022-09-03T15:25:57;100980.91;;;26.10;32.63
57990;BME280;58373;51.824;5.564;2022-09-03T15:36:44;100984.31;;;25.99;32.86
57990;BME280;58373;51.824;5.564;2022-09-03T15:39:19;100981.34;;;26.07;32.94
57990;BME280;58373;51.824;5.564;2022-09-03T15:44:18;100983.13;;;25.94;33.71
57990;BME280;58373;51.824;5.564;2022-09-03T15:49:26;100980.31;;;25.89;32.79
57990;BME280;58373;51.824;5.564;2022-09-03T15:54:40;100983.63;;;25.85;32.93
57990;BME280;58373;51.824;5.564;2022-09-03T15:57:20;100983.44;;;25.86;32.68
57990;BME280;58373;51.824;5.564;2022-09-03T16:05:20;100971.91;;;25.74;32.83
57990;BME280;58373;51.824;5.564;2022-09-03T16:08:02;100987.41;;;25.77;32.83
57990;BME280;58373;51.824;5.564;2022-09-03T16:10:38;100983.38;;;25.68;32.85
57990;BME280;58373;51.824;5.564;2022-09-03T16:16:02;100976.59;;;25.54;32.25
57990;BME280;58373;51.824;5.564;2022-09-03T16:23:49;100984.28;;;25.62;33.69
57990;BME280;58373;51.824;5.564;2022-09-03T16:27:06;100979.78;;;25.62;32.65
57990;BME280;58373;51.824;5.564;2022-09-03T16:29:11;100985.88;;;25.63;32.70
57990;BME280;58373;51.824;5.564;2022-09-03T16:37:27;100983.84;;;25.47;33.41
57990;BME280;58373;51.824;5.564;2022-09-03T16:48:30;100988.19;;;25.41;34.28
57990;BME280;58373;51.824;5.564;2022-09-03T16:51:09;100983.69;;;25.41;33.89
57990;BME280;58373;51.824;5.564;2022-09-03T16:56:45;100990.75;;;25.29;34.98
57990;BME280;58373;51.824;5.564;2022-09-03T17:24:08;100987.88;;;24.74;38.08
57990;BME280;58373;51.824;5.564;2022-09-03T17:35:07;101000.66;;;24.52;39.88
57990;BME280;58373;51.824;5.564;2022-09-03T17:41:03;101006.00;;;24.46;40.36
57990;BME280;58373;51.824;5.564;2022-09-03T17:49:00;101019.56;;;24.11;40.91
57990;BME280;58373;51.824;5.564;2022-09-03T17:51:43;101015.09;;;24.11;41.05
57990;BME280;58373;51.824;5.564;2022-09-03T17:59:46;101029.06;;;23.80;41.40
57990;BME280;58373;51.824;5.564;2022-09-03T18:08:06;101031.50;;;23.62;41.26
57990;BME280;58373;51.824;5.564;2022-09-03T18:16:20;101034.16;;;23.29;43.01
57990;BME280;58373;51.824;5.564;2022-09-03T18:18:51;101054.72;;;23.20;42.97
57990;BME280;58373;51.824;5.564;2022-09-03T18:21:22;101057.94;;;23.09;43.02
57990;BME280;58373;51.824;5.564;2022-09-03T18:24:40;101057.56;;;23.25;42.10
57990;BME280;58373;51.824;5.564;2022-09-03T18:27:32;101068.53;;;22.96;43.37
57990;BME280;58373;51.824;5.564;2022-09-03T18:30:19;101062.75;;;22.86;43.88